sensor_id;sensor_type;location;lat;lon;timestamp;pressure;altitude;pressure_sealevel;temperature;humidity
8366;BME280;4220;42.502;24.188;2024-01-25T00:00:51;95520.91;;;5.50;93.39
8366;BME280;4220;42.502;24.188;2024-01-25T00:03:18;95403.91;;;4.80;94.37
8366;BME280;4220;42.502;24.188;2024-01-25T00:05:44;95516.28;;;5.52;95.55
8366;BME280;4220;42.502;24.188;2024-01-25T00:08:12;95517.19;;;5.59;96.68
8366;BME280;4220;42.502;24.188;2024-01-25T00:10:39;95522.00;;;5.70;96.06
8366;BME280;4220;42.502;24.188;2024-01-25T00:13:06;95483.16;;;5.43;95.48
8366;BME280;4220;42.502;24.188;2024-01-25T00:15:33;95511.75;;;5.75;93.20
8366;BME280;4220;42.502;24.188;2024-01-25T00:18:00;95516.59;;;5.86;93.19
8366;BME280;4220;42.502;24.188;2024-01-25T00:20:26;95517.28;;;5.80;93.35
8366;BME280;4220;42.502;24.188;2024-01-25T00:22:53;95540.97;;;5.80;92.67
8366;BME280;4220;42.502;24.188;2024-01-25T00:25:21;95523.66;;;5.71;92.22
8366;BME280;4220;42.502;24.188;2024-01-25T00:27:48;95532.78;;;5.75;89.73
8366;BME280;4220;42.502;24.188;2024-01-25T00:30:15;95541.06;;;5.72;89.51
8366;BME280;4220;42.502;24.188;2024-01-25T00:32:42;95520.72;;;5.66;88.13
8366;BME280;4220;42.502;24.188;2024-01-25T00:35:10;95519.28;;;5.64;88.60
8366;BME280;4220;42.502;24.188;2024-01-25T00:37:39;95523.34;;;5.37;88.14
8366;BME280;4220;42.502;24.188;2024-01-25T00:40:07;95500.28;;;5.39;88.33
8366;BME280;4220;42.502;24.188;2024-01-25T00:42:39;95505.47;;;5.47;89.03
8366;BME280;4220;42.502;24.188;2024-01-25T00:45:08;95554.34;;;5.42;89.06
8366;BME280;4220;42.502;24.188;2024-01-25T00:47:35;95506.63;;;5.30;89.85
8366;BME280;4220;42.502;24.188;2024-01-25T00:50:03;95502.06;;;5.24;90.69
8366;BME280;4220;42.502;24.188;2024-01-25T00:52:30;95501.16;;;5.17;90.52
8366;BME280;4220;42.502;24.188;2024-01-25T00:54:58;95471.31;;;5.10;89.96
8366;BME280;4220;42.502;24.188;2024-01-25T00:57:25;95458.38;;;5.08;89.88
8366;BME280;4220;42.502;24.188;2024-01-25T00:59:54;95472.03;;;5.04;89.83
8366;BME280;4220;42.502;24.188;2024-01-25T01:02:21;95489.91;;;5.08;89.40
8366;BME280;4220;42.502;24.188;2024-01-25T01:04:49;95490.19;;;5.13;88.50
8366;BME280;4220;42.502;24.188;2024-01-25T01:07:16;95490.28;;;5.20;86.99
8366;BME280;4220;42.502;24.188;2024-01-25T01:09:43;95469.81;;;5.30;85.56
8366;BME280;4220;42.502;24.188;2024-01-25T01:12:10;95485.94;;;5.27;86.36
8366;BME280;4220;42.502;24.188;2024-01-25T01:14:36;95457.03;;;5.27;86.30
8366;BME280;4220;42.502;24.188;2024-01-25T01:17:05;95436.59;;;5.00;86.42
8366;BME280;4220;42.502;24.188;2024-01-25T01:19:32;95460.00;;;5.24;86.25
8366;BME280;4220;42.502;24.188;2024-01-25T01:21:59;95498.81;;;5.22;86.20
8366;BME280;4220;42.502;24.188;2024-01-25T01:24:25;95464.44;;;5.23;86.50
8366;BME280;4220;42.502;24.188;2024-01-25T01:26:52;95459.38;;;5.22;86.13
8366;BME280;4220;42.502;24.188;2024-01-25T01:29:19;95412.47;;;4.96;85.42
8366;BME280;4220;42.502;24.188;2024-01-25T01:31:46;95459.19;;;5.23;85.43
8366;BME280;4220;42.502;24.188;2024-01-25T01:34:14;95491.69;;;5.31;84.83
8366;BME280;4220;42.502;24.188;2024-01-25T01:36:43;95416.38;;;5.00;85.49
8366;BME280;4220;42.502;24.188;2024-01-25T01:39:09;95445.97;;;5.32;85.00
8366;BME280;4220;42.502;24.188;2024-01-25T01:41:36;95478.06;;;5.27;85.00
8366;BME280;4220;42.502;24.188;2024-01-25T01:44:03;95432.72;;;5.25;84.96
8366;BME280;4220;42.502;24.188;2024-01-25T01:46:32;95468.25;;;5.21;85.42
8366;BME280;4220;42.502;24.188;2024-01-25T01:49:00;95431.19;;;5.31;85.60
8366;BME280;4220;42.502;24.188;2024-01-25T01:51:29;95393.72;;;4.99;86.03
8366;BME280;4220;42.502;24.188;2024-01-25T01:53:57;95431.63;;;5.19;85.49
8366;BME280;4220;42.502;24.188;2024-01-25T01:56:24;95422.50;;;5.30;86.09
8366;BME280;4220;42.502;24.188;2024-01-25T01:58:53;95334.91;;;4.86;84.59
8366;BME280;4220;42.502;24.188;2024-01-25T02:01:21;95451.31;;;5.38;84.04
8366;BME280;4220;42.502;24.188;2024-01-25T02:03:48;95407.63;;;5.37;83.84
8366;BME280;4220;42.502;24.188;2024-01-25T02:06:14;95399.44;;;5.32;83.91
8366;BME280;4220;42.502;24.188;2024-01-25T02:08:43;95396.75;;;5.40;83.80
8366;BME280;4220;42.502;24.188;2024-01-25T02:11:12;95396.28;;;5.37;83.98
8366;BME280;4220;42.502;24.188;2024-01-25T02:13:39;95399.66;;;5.31;84.48
8366;BME280;4220;42.502;24.188;2024-01-25T02:16:07;95402.28;;;5.45;84.31
8366;BME280;4220;42.502;24.188;2024-01-25T02:18:34;95387.38;;;5.52;84.57
8366;BME280;4220;42.502;24.188;2024-01-25T02:21:01;95384.41;;;5.55;85.19
8366;BME280;4220;42.502;24.188;2024-01-25T02:23:29;95393.34;;;5.61;85.21
8366;BME280;4220;42.502;24.188;2024-01-25T02:25:56;95386.19;;;5.69;84.77
8366;BME280;4220;42.502;24.188;2024-01-25T02:28:24;95405.94;;;5.65;84.76
8366;BME280;4220;42.502;24.188;2024-01-25T02:30:51;95384.19;;;5.71;84.94
8366;BME280;4220;42.502;24.188;2024-01-25T02:33:18;95384.53;;;5.68;84.35
8366;BME280;4220;42.502;24.188;2024-01-25T02:35:44;95403.59;;;5.70;85.04
8366;BME280;4220;42.502;24.188;2024-01-25T02:38:11;95364.50;;;5.67;85.39
8366;BME280;4220;42.502;24.188;2024-01-25T02:40:39;95362.03;;;5.66;86.73
8366;BME280;4220;42.502;24.188;2024-01-25T02:43:06;95367.84;;;5.61;88.43
8366;BME280;4220;42.502;24.188;2024-01-25T02:45:33;95413.06;;;5.50;88.57
8366;BME280;4220;42.502;24.188;2024-01-25T02:48:00;95366.59;;;5.57;88.86
8366;BME280;4220;42.502;24.188;2024-01-25T02:50:27;95271.00;;;4.85;89.45
8366;BME280;4220;42.502;24.188;2024-01-25T02:52:54;95383.38;;;5.56;89.05
8366;BME280;4220;42.502;24.188;2024-01-25T02:55:21;95372.50;;;5.59;89.37
8366;BME280;4220;42.502;24.188;2024-01-25T02:57:50;95386.19;;;5.69;88.82
8366;BME280;4220;42.502;24.188;2024-01-25T03:00:16;95369.41;;;5.56;88.53
8366;BME280;4220;42.502;24.188;2024-01-25T03:02:43;95386.25;;;5.76;89.01
8366;BME280;4220;42.502;24.188;2024-01-25T03:05:10;95394.69;;;5.71;88.36
8366;BME280;4220;42.502;24.188;2024-01-25T03:07:37;95366.38;;;5.73;88.62
8366;BME280;4220;42.502;24.188;2024-01-25T03:10:05;95361.06;;;5.67;88.86
8366;BME280;4220;42.502;24.188;2024-01-25T03:12:31;95391.72;;;5.74;88.38
8366;BME280;4220;42.502;24.188;2024-01-25T03:15:00;95367.47;;;5.79;89.19
8366;BME280;4220;42.502;24.188;2024-01-25T03:17:26;95377.78;;;5.80;88.93
8366;BME280;4220;42.502;24.188;2024-01-25T03:19:53;95368.91;;;5.96;89.16
8366;BME280;4220;42.502;24.188;2024-01-25T03:22:20;95400.84;;;5.93;88.89
8366;BME280;4220;42.502;24.188;2024-01-25T03:24:47;95385.94;;;6.00;89.31
8366;BME280;4220;42.502;24.188;2024-01-25T03:27:14;95408.09;;;6.06;89.16
8366;BME280;4220;42.502;24.188;2024-01-25T03:29:41;95357.69;;;6.09;89.41
8366;BME280;4220;42.502;24.188;2024-01-25T03:32:10;95335.00;;;5.86;89.26
8366;BME280;4220;42.502;24.188;2024-01-25T03:34:37;95375.06;;;6.03;90.36
8366;BME280;4220;42.502;24.188;2024-01-25T03:37:04;95408.09;;;6.06;90.31
8366;BME280;4220;42.502;24.188;2024-01-25T03:39:31;95415.06;;;6.13;90.20
8366;BME280;4220;42.502;24.188;2024-01-25T03:41:58;95358.44;;;6.03;90.45
8366;BME280;4220;42.502;24.188;2024-01-25T03:44:25;95409.75;;;6.07;91.15
8366;BME280;4220;42.502;24.188;2024-01-25T03:46:52;95369.13;;;6.16;90.84
8366;BME280;4220;42.502;24.188;2024-01-25T03:49:20;95406.81;;;6.16;90.78
8366;BME280;4220;42.502;24.188;2024-01-25T03:51:48;95393.75;;;6.29;90.73
8366;BME280;4220;42.502;24.188;2024-01-25T03:54:16;95381.59;;;6.28;90.92
8366;BME280;4220;42.502;24.188;2024-01-25T03:56:43;95372.88;;;6.28;90.57
8366;BME280;4220;42.502;24.188;2024-01-25T03:59:10;95382.84;;;6.32;90.07
8366;BME280;4220;42.502;24.188;2024-01-25T04:01:43;95363.78;;;6.30;90.20
8366;BME280;4220;42.502;24.188;2024-01-25T04:04:10;95368.28;;;6.36;89.72
8366;BME280;4220;42.502;24.188;2024-01-25T04:06:41;95364.78;;;6.29;89.74
8366;BME280;4220;42.502;24.188;2024-01-25T04:09:08;95384.16;;;6.43;89.33
8366;BME280;4220;42.502;24.188;2024-01-25T04:11:35;95357.00;;;6.42;89.94
8366;BME280;4220;42.502;24.188;2024-01-25T04:14:02;95349.69;;;6.38;90.02
8366;BME280;4220;42.502;24.188;2024-01-25T04:16:29;95367.03;;;6.32;90.81
8366;BME280;4220;42.502;24.188;2024-01-25T04:18:56;95368.22;;;6.30;91.27
8366;BME280;4220;42.502;24.188;2024-01-25T04:21:23;95358.72;;;6.29;91.91
8366;BME280;4220;42.502;24.188;2024-01-25T04:23:51;95365.34;;;6.25;92.81
8366;BME280;4220;42.502;24.188;2024-01-25T04:26:18;95363.47;;;6.19;93.52
8366;BME280;4220;42.502;24.188;2024-01-25T04:28:45;95361.00;;;6.17;93.63
8366;BME280;4220;42.502;24.188;2024-01-25T04:31:11;95383.88;;;6.17;94.47
8366;BME280;4220;42.502;24.188;2024-01-25T04:33:38;95363.28;;;6.20;94.37
8366;BME280;4220;42.502;24.188;2024-01-25T04:36:06;95373.88;;;6.27;93.86
8366;BME280;4220;42.502;24.188;2024-01-25T04:38:33;95392.97;;;6.29;93.94
8366;BME280;4220;42.502;24.188;2024-01-25T04:41:01;95368.44;;;6.28;94.64
8366;BME280;4220;42.502;24.188;2024-01-25T04:43:28;95352.78;;;6.27;95.11
8366;BME280;4220;42.502;24.188;2024-01-25T04:45:54;95364.78;;;6.29;94.88
8366;BME280;4220;42.502;24.188;2024-01-25T04:48:21;95351.31;;;6.18;95.59
8366;BME280;4220;42.502;24.188;2024-01-25T04:50:48;95401.84;;;6.28;96.83
8366;BME280;4220;42.502;24.188;2024-01-25T04:53:15;95357.81;;;6.01;96.74
8366;BME280;4220;42.502;24.188;2024-01-25T04:55:41;95375.81;;;6.18;98.03
8366;BME280;4220;42.502;24.188;2024-01-25T04:58:10;95334.63;;;5.89;99.13
8366;BME280;4220;42.502;24.188;2024-01-25T05:00:36;95386.78;;;6.01;99.80
8366;BME280;4220;42.502;24.188;2024-01-25T05:03:05;95393.41;;;5.97;100.00
8366;BME280;4220;42.502;24.188;2024-01-25T05:05:32;95381.81;;;5.91;100.00
8366;BME280;4220;42.502;24.188;2024-01-25T05:07:59;95364.81;;;5.93;100.00
8366;BME280;4220;42.502;24.188;2024-01-25T05:10:26;95374.28;;;5.88;100.00
8366;BME280;4220;42.502;24.188;2024-01-25T05:12:52;95373.19;;;5.68;100.00
8366;BME280;4220;42.502;24.188;2024-01-25T05:15:21;95396.06;;;5.82;100.00
8366;BME280;4220;42.502;24.188;2024-01-25T05:17:47;95427.53;;;5.90;100.00
8366;BME280;4220;42.502;24.188;2024-01-25T05:20:14;95399.16;;;5.85;100.00
8366;BME280;4220;42.502;24.188;2024-01-25T05:22:43;95342.72;;;5.59;100.00
8366;BME280;4220;42.502;24.188;2024-01-25T05:25:11;95407.38;;;5.82;100.00
8366;BME280;4220;42.502;24.188;2024-01-25T05:27:38;95385.06;;;5.78;100.00
8366;BME280;4220;42.502;24.188;2024-01-25T05:30:06;95409.31;;;5.88;100.00
8366;BME280;4220;42.502;24.188;2024-01-25T05:32:34;95435.63;;;5.88;100.00
8366;BME280;4220;42.502;24.188;2024-01-25T05:35:01;95362.25;;;5.64;100.00
8366;BME280;4220;42.502;24.188;2024-01-25T05:37:29;95416.03;;;5.91;100.00
8366;BME280;4220;42.502;24.188;2024-01-25T05:39:55;95403.06;;;5.89;100.00
8366;BME280;4220;42.502;24.188;2024-01-25T05:42:22;95467.84;;;5.90;100.00
8366;BME280;4220;42.502;24.188;2024-01-25T05:44:49;95474.75;;;5.91;100.00
8366;BME280;4220;42.502;24.188;2024-01-25T05:47:16;95423.28;;;5.89;100.00
8366;BME280;4220;42.502;24.188;2024-01-25T05:49:44;95448.78;;;5.88;100.00
8366;BME280;4220;42.502;24.188;2024-01-25T05:52:11;95458.13;;;5.91;100.00
8366;BME280;4220;42.502;24.188;2024-01-25T05:54:37;95442.34;;;5.91;100.00
8366;BME280;4220;42.502;24.188;2024-01-25T05:57:04;95476.38;;;5.92;100.00
8366;BME280;4220;42.502;24.188;2024-01-25T05:59:31;95450.03;;;6.07;100.00
8366;BME280;4220;42.502;24.188;2024-01-25T06:01:58;95469.94;;;5.95;100.00
8366;BME280;4220;42.502;24.188;2024-01-25T06:04:25;95429.44;;;5.96;100.00
8366;BME280;4220;42.502;24.188;2024-01-25T06:06:53;95446.44;;;5.93;100.00
8366;BME280;4220;42.502;24.188;2024-01-25T06:09:20;95466.03;;;5.91;100.00
8366;BME280;4220;42.502;24.188;2024-01-25T06:11:47;95432.00;;;5.89;100.00
8366;BME280;4220;42.502;24.188;2024-01-25T06:14:13;95431.53;;;5.71;100.00
8366;BME280;4220;42.502;24.188;2024-01-25T06:16:40;95448.44;;;5.77;100.00
8366;BME280;4220;42.502;24.188;2024-01-25T06:19:07;95437.97;;;5.83;100.00
8366;BME280;4220;42.502;24.188;2024-01-25T06:21:34;95430.72;;;5.71;100.00
8366;BME280;4220;42.502;24.188;2024-01-25T06:24:05;95445.59;;;5.78;100.00
8366;BME280;4220;42.502;24.188;2024-01-25T06:26:32;95425.03;;;5.67;100.00
8366;BME280;4220;42.502;24.188;2024-01-25T06:28:58;95473.00;;;5.69;100.00
8366;BME280;4220;42.502;24.188;2024-01-25T06:31:26;95453.31;;;5.65;100.00
8366;BME280;4220;42.502;24.188;2024-01-25T06:33:53;95430.34;;;5.74;100.00
8366;BME280;4220;42.502;24.188;2024-01-25T06:36:19;95463.97;;;5.86;100.00
8366;BME280;4220;42.502;24.188;2024-01-25T06:38:46;95432.63;;;5.91;100.00
8366;BME280;4220;42.502;24.188;2024-01-25T06:41:15;95484.19;;;6.01;100.00
8366;BME280;4220;42.502;24.188;2024-01-25T06:43:42;95431.16;;;6.04;100.00
8366;BME280;4220;42.502;24.188;2024-01-25T06:46:09;95410.28;;;5.73;100.00
8366;BME280;4220;42.502;24.188;2024-01-25T06:48:36;95443.31;;;6.05;100.00
8366;BME280;4220;42.502;24.188;2024-01-25T06:51:03;95416.28;;;5.81;100.00
8366;BME280;4220;42.502;24.188;2024-01-25T06:53:29;95445.03;;;5.83;100.00
8366;BME280;4220;42.502;24.188;2024-01-25T06:55:56;95412.94;;;5.58;100.00
8366;BME280;4220;42.502;24.188;2024-01-25T06:58:25;95443.72;;;5.72;100.00
8366;BME280;4220;42.502;24.188;2024-01-25T07:00:52;95433.41;;;5.77;100.00
8366;BME280;4220;42.502;24.188;2024-01-25T07:03:19;95446.16;;;5.74;100.00
8366;BME280;4220;42.502;24.188;2024-01-25T07:05:45;95445.19;;;5.89;100.00
8366;BME280;4220;42.502;24.188;2024-01-25T07:08:12;95430.44;;;5.80;100.00
8366;BME280;4220;42.502;24.188;2024-01-25T07:10:40;95443.72;;;5.72;100.00
8366;BME280;4220;42.502;24.188;2024-01-25T07:13:07;95481.72;;;5.70;100.00
8366;BME280;4220;42.502;24.188;2024-01-25T07:15:35;95461.13;;;5.73;100.00
8366;BME280;4220;42.502;24.188;2024-01-25T07:18:02;95459.50;;;5.72;100.00
8366;BME280;4220;42.502;24.188;2024-01-25T07:20:29;95443.06;;;5.70;100.00
8366;BME280;4220;42.502;24.188;2024-01-25T07:22:56;95510.84;;;5.68;100.00
8366;BME280;4220;42.502;24.188;2024-01-25T07:25:23;95464.28;;;5.69;100.00
8366;BME280;4220;42.502;24.188;2024-01-25T07:27:50;95443.88;;;5.56;100.00
8366;BME280;4220;42.502;24.188;2024-01-25T07:30:17;95424.56;;;5.64;100.00
8366;BME280;4220;42.502;24.188;2024-01-25T07:32:45;95430.44;;;5.80;100.00
8366;BME280;4220;42.502;24.188;2024-01-25T07:35:12;95372.59;;;5.37;100.00
8366;BME280;4220;42.502;24.188;2024-01-25T07:37:39;95490.56;;;5.91;100.00
8366;BME280;4220;42.502;24.188;2024-01-25T07:40:08;95448.22;;;6.08;100.00
8366;BME280;4220;42.502;24.188;2024-01-25T07:42:35;95434.25;;;5.92;100.00
8366;BME280;4220;42.502;24.188;2024-01-25T07:45:02;95432.91;;;5.97;100.00
8366;BME280;4220;42.502;24.188;2024-01-25T07:47:29;95432.00;;;6.04;100.00
8366;BME280;4220;42.502;24.188;2024-01-25T07:49:57;95450.22;;;6.06;100.00
8366;BME280;4220;42.502;24.188;2024-01-25T07:52:24;95438.31;;;6.10;100.00
8366;BME280;4220;42.502;24.188;2024-01-25T07:54:51;95426.03;;;6.17;100.00
8366;BME280;4220;42.502;24.188;2024-01-25T07:57:19;95419.16;;;6.16;100.00
8366;BME280;4220;42.502;24.188;2024-01-25T07:59:46;95430.94;;;6.20;100.00
8366;BME280;4220;42.502;24.188;2024-01-25T08:02:13;95361.09;;;6.24;100.00
8366;BME280;4220;42.502;24.188;2024-01-25T08:04:42;95379.44;;;5.96;100.00
8366;BME280;4220;42.502;24.188;2024-01-25T08:07:10;95428.66;;;6.31;100.00
8366;BME280;4220;42.502;24.188;2024-01-25T08:09:37;95442.84;;;6.37;100.00
8366;BME280;4220;42.502;24.188;2024-01-25T08:12:04;95406.94;;;6.50;100.00
8366;BME280;4220;42.502;24.188;2024-01-25T08:14:31;95376.78;;;6.53;100.00
8366;BME280;4220;42.502;24.188;2024-01-25T08:16:58;95400.94;;;6.84;100.00
8366;BME280;4220;42.502;24.188;2024-01-25T08:19:25;95433.19;;;6.86;100.00
8366;BME280;4220;42.502;24.188;2024-01-25T08:21:51;95447.16;;;6.80;100.00
8366;BME280;4220;42.502;24.188;2024-01-25T08:24:20;95414.50;;;6.81;100.00
8366;BME280;4220;42.502;24.188;2024-01-25T08:26:46;95455.22;;;6.79;100.00
8366;BME280;4220;42.502;24.188;2024-01-25T08:29:13;95421.03;;;6.85;100.00
8366;BME280;4220;42.502;24.188;2024-01-25T08:31:40;95426.72;;;6.89;100.00
8366;BME280;4220;42.502;24.188;2024-01-25T08:34:07;95394.81;;;6.77;100.00
8366;BME280;4220;42.502;24.188;2024-01-25T08:36:33;95424.78;;;6.97;100.00
8366;BME280;4220;42.502;24.188;2024-01-25T08:39:00;95435.34;;;6.97;100.00
8366;BME280;4220;42.502;24.188;2024-01-25T08:41:28;95433.75;;;7.03;99.94
8366;BME280;4220;42.502;24.188;2024-01-25T08:43:55;95455.28;;;7.06;99.96
8366;BME280;4220;42.502;24.188;2024-01-25T08:46:22;95425.72;;;7.17;99.11
8366;BME280;4220;42.502;24.188;2024-01-25T08:48:49;95436.16;;;7.25;99.49
8366;BME280;4220;42.502;24.188;2024-01-25T08:51:16;95394.16;;;6.96;97.68
8366;BME280;4220;42.502;24.188;2024-01-25T08:53:43;95425.34;;;7.20;97.27
8366;BME280;4220;42.502;24.188;2024-01-25T08:56:10;95496.72;;;7.12;97.31
8366;BME280;4220;42.502;24.188;2024-01-25T08:58:38;95434.28;;;7.19;97.25
8366;BME280;4220;42.502;24.188;2024-01-25T09:01:05;95456.72;;;7.09;97.70
8366;BME280;4220;42.502;24.188;2024-01-25T09:03:31;95445.56;;;7.07;97.99
8366;BME280;4220;42.502;24.188;2024-01-25T09:05:58;95407.47;;;6.88;97.01
8366;BME280;4220;42.502;24.188;2024-01-25T09:08:30;95420.78;;;7.08;96.99
8366;BME280;4220;42.502;24.188;2024-01-25T09:10:57;95403.41;;;7.13;96.70
8366;BME280;4220;42.502;24.188;2024-01-25T09:13:24;95415.00;;;7.19;96.27
8366;BME280;4220;42.502;24.188;2024-01-25T09:15:52;95415.63;;;7.21;95.83
8366;BME280;4220;42.502;24.188;2024-01-25T09:18:19;95460.47;;;7.21;95.80
8366;BME280;4220;42.502;24.188;2024-01-25T09:20:45;95405.91;;;7.21;96.38
8366;BME280;4220;42.502;24.188;2024-01-25T09:23:13;95428.81;;;7.21;94.97
8366;BME280;4220;42.502;24.188;2024-01-25T09:25:42;95417.28;;;7.22;96.55
8366;BME280;4220;42.502;24.188;2024-01-25T09:28:08;95418.06;;;7.22;95.90
8366;BME280;4220;42.502;24.188;2024-01-25T09:30:37;95415.25;;;7.24;95.08
8366;BME280;4220;42.502;24.188;2024-01-25T09:33:05;95393.88;;;7.12;95.36
8366;BME280;4220;42.502;24.188;2024-01-25T09:35:32;95416.06;;;7.24;95.68
8366;BME280;4220;42.502;24.188;2024-01-25T09:37:59;95408.53;;;7.21;95.92
8366;BME280;4220;42.502;24.188;2024-01-25T09:40:26;95430.97;;;7.39;95.36
8366;BME280;4220;42.502;24.188;2024-01-25T09:42:54;95422.59;;;7.35;94.49
8366;BME280;4220;42.502;24.188;2024-01-25T09:45:20;95426.44;;;7.33;95.31
8366;BME280;4220;42.502;24.188;2024-01-25T09:47:48;95417.53;;;7.34;94.23
8366;BME280;4220;42.502;24.188;2024-01-25T09:50:16;95430.81;;;7.47;93.82
8366;BME280;4220;42.502;24.188;2024-01-25T09:52:44;95437.97;;;7.59;94.08
8366;BME280;4220;42.502;24.188;2024-01-25T09:55:12;95432.78;;;7.72;93.00
8366;BME280;4220;42.502;24.188;2024-01-25T09:57:41;95440.34;;;7.82;91.90
8366;BME280;4220;42.502;24.188;2024-01-25T10:00:12;95450.91;;;7.82;91.39
8366;BME280;4220;42.502;24.188;2024-01-25T10:02:39;95446.59;;;7.74;92.10
8366;BME280;4220;42.502;24.188;2024-01-25T10:05:07;95398.69;;;7.77;91.84
8366;BME280;4220;42.502;24.188;2024-01-25T10:07:39;95429.41;;;7.91;90.61
8366;BME280;4220;42.502;24.188;2024-01-25T10:10:07;95408.56;;;8.03;90.61
8366;BME280;4220;42.502;24.188;2024-01-25T10:12:35;95414.84;;;8.02;90.16
8366;BME280;4220;42.502;24.188;2024-01-25T10:15:02;95418.53;;;8.08;89.84
8366;BME280;4220;42.502;24.188;2024-01-25T10:17:30;95415.00;;;8.35;90.05
8366;BME280;4220;42.502;24.188;2024-01-25T10:19:56;95416.03;;;8.53;88.04
8366;BME280;4220;42.502;24.188;2024-01-25T10:22:24;95402.25;;;8.65;87.66
8366;BME280;4220;42.502;24.188;2024-01-25T10:24:53;95410.16;;;8.71;87.13
8366;BME280;4220;42.502;24.188;2024-01-25T10:27:21;95397.53;;;8.60;86.95
8366;BME280;4220;42.502;24.188;2024-01-25T10:29:49;95398.56;;;8.52;86.73
8366;BME280;4220;42.502;24.188;2024-01-25T10:32:16;95423.44;;;8.24;87.99
8366;BME280;4220;42.502;24.188;2024-01-25T10:34:45;95418.53;;;8.08;88.22
8366;BME280;4220;42.502;24.188;2024-01-25T10:37:14;95388.03;;;8.05;89.29
8366;BME280;4220;42.502;24.188;2024-01-25T10:39:44;95393.97;;;8.20;88.88
8366;BME280;4220;42.502;24.188;2024-01-25T10:42:12;95381.94;;;8.11;88.63
8366;BME280;4220;42.502;24.188;2024-01-25T10:44:39;95383.94;;;7.96;89.29
8366;BME280;4220;42.502;24.188;2024-01-25T10:47:06;95447.03;;;7.78;89.04
8366;BME280;4220;42.502;24.188;2024-01-25T10:49:35;95341.34;;;7.52;89.44
8366;BME280;4220;42.502;24.188;2024-01-25T10:52:04;95333.44;;;7.65;89.73
8366;BME280;4220;42.502;24.188;2024-01-25T10:54:32;95386.38;;;7.91;88.30
8366;BME280;4220;42.502;24.188;2024-01-25T10:56:59;95372.16;;;7.99;87.78
8366;BME280;4220;42.502;24.188;2024-01-25T10:59:28;95359.22;;;8.10;87.70
8366;BME280;4220;42.502;24.188;2024-01-25T11:01:55;95361.72;;;8.31;87.69
8366;BME280;4220;42.502;24.188;2024-01-25T11:04:21;95335.28;;;8.38;86.31
8366;BME280;4220;42.502;24.188;2024-01-25T11:06:49;95351.13;;;8.38;85.70
8366;BME280;4220;42.502;24.188;2024-01-25T11:09:18;95349.97;;;8.47;86.35
8366;BME280;4220;42.502;24.188;2024-01-25T11:11:46;95370.09;;;8.68;85.47
8366;BME280;4220;42.502;24.188;2024-01-25T11:14:14;95348.13;;;8.93;85.72
8366;BME280;4220;42.502;24.188;2024-01-25T11:16:43;95336.53;;;9.01;84.41
8366;BME280;4220;42.502;24.188;2024-01-25T11:19:17;95355.84;;;8.95;85.31
8366;BME280;4220;42.502;24.188;2024-01-25T11:21:45;95341.22;;;8.99;85.11
8366;BME280;4220;42.502;24.188;2024-01-25T11:24:13;95350.56;;;8.95;84.73
8366;BME280;4220;42.502;24.188;2024-01-25T11:26:40;95332.47;;;8.79;85.48
8366;BME280;4220;42.502;24.188;2024-01-25T11:29:07;95346.69;;;8.58;86.16
8366;BME280;4220;42.502;24.188;2024-01-25T11:31:34;95314.16;;;8.71;85.65
8366;BME280;4220;42.502;24.188;2024-01-25T11:34:03;95325.16;;;8.94;84.98
8366;BME280;4220;42.502;24.188;2024-01-25T11:36:30;95322.06;;;9.03;83.65
8366;BME280;4220;42.502;24.188;2024-01-25T11:38:57;95327.16;;;8.85;84.47
8366;BME280;4220;42.502;24.188;2024-01-25T11:41:24;95332.47;;;8.66;84.01
8366;BME280;4220;42.502;24.188;2024-01-25T11:43:51;95373.75;;;8.53;85.07
8366;BME280;4220;42.502;24.188;2024-01-25T11:46:17;95306.44;;;8.49;86.59
8366;BME280;4220;42.502;24.188;2024-01-25T11:48:44;95326.75;;;8.55;86.21
8366;BME280;4220;42.502;24.188;2024-01-25T11:51:13;95349.13;;;8.53;86.21
8366;BME280;4220;42.502;24.188;2024-01-25T11:53:40;95305.84;;;8.47;85.83
8366;BME280;4220;42.502;24.188;2024-01-25T11:56:10;95329.22;;;8.37;85.85
8366;BME280;4220;42.502;24.188;2024-01-25T11:58:37;95332.84;;;8.36;86.00
8366;BME280;4220;42.502;24.188;2024-01-25T12:01:06;95330.81;;;8.32;86.55
8366;BME280;4220;42.502;24.188;2024-01-25T12:03:34;95334.91;;;8.28;87.34
8366;BME280;4220;42.502;24.188;2024-01-25T12:06:02;95308.59;;;8.00;87.20
8366;BME280;4220;42.502;24.188;2024-01-25T12:08:32;95352.72;;;8.19;87.27
8366;BME280;4220;42.502;24.188;2024-01-25T12:11:05;95341.94;;;8.14;87.91
8366;BME280;4220;42.502;24.188;2024-01-25T12:13:39;95361.25;;;8.15;86.90
8366;BME280;4220;42.502;24.188;2024-01-25T12:16:07;95318.56;;;8.11;87.63
8366;BME280;4220;42.502;24.188;2024-01-25T12:18:34;95353.94;;;8.17;87.85
8366;BME280;4220;42.502;24.188;2024-01-25T12:21:03;95352.50;;;8.14;87.62
8366;BME280;4220;42.502;24.188;2024-01-25T12:23:34;95326.66;;;7.97;87.94
8366;BME280;4220;42.502;24.188;2024-01-25T12:26:01;95330.31;;;8.02;88.34
8366;BME280;4220;42.502;24.188;2024-01-25T12:28:29;95249.16;;;7.50;87.68
8366;BME280;4220;42.502;24.188;2024-01-25T12:30:57;95302.50;;;8.00;88.38
8366;BME280;4220;42.502;24.188;2024-01-25T12:33:23;95336.00;;;7.99;87.67
8366;BME280;4220;42.502;24.188;2024-01-25T12:35:50;95366.09;;;7.98;87.98
8366;BME280;4220;42.502;24.188;2024-01-25T12:38:19;95301.44;;;7.81;87.95
8366;BME280;4220;42.502;24.188;2024-01-25T12:40:48;95352.44;;;7.88;87.69
8366;BME280;4220;42.502;24.188;2024-01-25T12:43:15;95277.41;;;7.63;88.44
8366;BME280;4220;42.502;24.188;2024-01-25T12:45:42;95322.34;;;7.89;88.88
8366;BME280;4220;42.502;24.188;2024-01-25T12:48:09;95313.88;;;8.00;88.68
8366;BME280;4220;42.502;24.188;2024-01-25T12:50:37;95305.75;;;8.02;87.57
8366;BME280;4220;42.502;24.188;2024-01-25T12:53:04;95311.88;;;8.22;87.82
8366;BME280;4220;42.502;24.188;2024-01-25T12:55:32;95296.63;;;8.17;86.99
8366;BME280;4220;42.502;24.188;2024-01-25T12:58:01;95283.81;;;8.14;86.65
8366;BME280;4220;42.502;24.188;2024-01-25T13:00:28;95296.22;;;8.20;85.89
8366;BME280;4220;42.502;24.188;2024-01-25T13:02:55;95315.78;;;8.32;86.20
8366;BME280;4220;42.502;24.188;2024-01-25T13:05:22;95308.50;;;8.47;85.41
8366;BME280;4220;42.502;24.188;2024-01-25T13:07:49;95270.88;;;8.52;85.20
8366;BME280;4220;42.502;24.188;2024-01-25T13:10:16;95298.91;;;8.66;85.18
8366;BME280;4220;42.502;24.188;2024-01-25T13:12:42;95261.25;;;8.77;83.30
8366;BME280;4220;42.502;24.188;2024-01-25T13:15:11;95301.53;;;8.86;83.78
8366;BME280;4220;42.502;24.188;2024-01-25T13:17:38;95290.56;;;8.76;83.52
8366;BME280;4220;42.502;24.188;2024-01-25T13:20:05;95229.97;;;8.48;82.64